Pagrindinis puslapis
METAR-TAF:

METAR-TAF

Oro uostai :

Naujasis Delis, Indija

platuma: 28-34N, ilguma: 077-07E, Aukštis: 220 m

Dabartinis oras

Ataskaita buvo paskelbta 25 minutes, ne 22:30 UTC
Ramus vėjas
Temperatūra 26°C
Drėgmė 84%
Slėgis 1009 hPa
Matomumas: 3500 m
Mažai debesys ne aukštis 10000 ft
rūkana

METAR: VIDP 192230Z 00000KT 3500 BR FEW100 26/23 Q1009 NOSIG

Laikas: 04:25 (22:55 UTC)

Prognozė

Ataskaita buvo paskelbta 2 valandos ir 55 minutes, ne 20:00 UTC
Prognozė galioja nuo 19 metu 21 UTC su 20 metu 06 UTC
Vėjas 6 kt iš Rytų/Pietryčių
Matomumas: 3500 m
Mažai debesys ne aukštis 4000 ft
Išsisklaidę debesys ne aukštis 10000 ft
migla, rūkana
Tapsmas
nuo 20 metu 00 UTC su 20 metu 02 UTC
Matomumas: 2200 m
rūkana
Tapsmas
nuo 20 metu 04 UTC su 20 metu 05 UTC
Matomumas: 3000 m
rūkana, migla

TAF: VIDP 192000Z 1921/2006 12006KT 3500 HZ BR FEW040 SCT100 BECMG 2000/2002 2200 BR BECMG 2004/2005 3000 BR HZ

Orai ataskaitas ir orų prognozės (METAR, TAF).

turimą stotys yra geltonos ir raudonos taškus žemėlapyje.

Perkelti pele per norėdami pamatyti stoties vardą.

Tada spustelėkite, norėdami matyti oro stebėjimo ir prognozės.

Norėdami pakeisti žemėlapį: spustelėkite ant žalios mygtukų su juodo kryžiaus žemyn,; žalią mygtuką su brūkšneliu, jei norite nutolinti; arba žalių rodyklių gretimoms žemėlapius.


METAR-TAF: